Time;durP1;ratioP1;P1;durP2;ratioP2;P2;SDS_P1;SDS_P2;PMS_P1;PMS_P2;Temp;Humidity;BMP_temperature;BMP_pressure;BME280_temperature;BME280_humidity;BME280_pressure;Samples;Min_cycle;Max_cycle;Signal;HPM_P1;HPM_P2
2021/10/26 00:00:39;;;;;;;2.25;1.90;;;;;;;15.04;69.49;100459.63;5017130;28;20033;-77
2021/10/26 00:03:11;;;;;;;1.77;1.67;;;;;;;15.00;68.96;100455.97;5016820;28;20037;-76
2021/10/26 00:05:39;;;;;;;1.55;1.45;;;;;;;15.05;69.04;100459.22;5016404;28;20037;-76
2021/10/26 00:08:08;;;;;;;2.85;1.77;;;;;;;15.02;68.90;100460.00;5016397;28;20030;-76
2021/10/26 00:10:36;;;;;;;1.92;1.38;;;;;;;14.97;68.69;100457.56;5016201;28;20068;-76
2021/10/26 00:13:02;;;;;;;2.15;1.83;;;;;;;14.97;68.73;100449.16;5016088;28;20083;-76
2021/10/26 00:15:34;;;;;;;1.83;1.55;;;;;;;14.94;68.97;100447.13;5015840;28;20454;-76
2021/10/26 00:17:59;;;;;;;1.73;1.63;;;;;;;14.98;68.74;100447.97;5016079;28;20029;-76
2021/10/26 00:20:30;;;;;;;1.85;1.70;;;;;;;15.08;68.73;100452.84;5016065;28;20094;-76
2021/10/26 00:22:55;;;;;;;1.50;1.40;;;;;;;15.07;68.44;100450.41;5033498;28;20094;-76
2021/10/26 00:25:21;;;;;;;1.70;1.60;;;;;;;15.08;68.13;100446.44;5015906;28;20464;-75
2021/10/26 00:27:50;;;;;;;2.95;1.92;;;;;;;15.18;67.89;100460.56;5015974;28;20025;-77
2021/10/26 00:30:19;;;;;;;1.60;1.48;;;;;;;15.12;68.02;100452.88;5015844;28;20037;-76
2021/10/26 00:32:47;;;;;;;1.95;1.75;;;;;;;15.14;67.99;100450.50;5015920;28;20044;-76
2021/10/26 00:35:16;;;;;;;4.22;2.00;;;;;;;15.12;67.96;100442.47;5015809;28;20029;-75
2021/10/26 00:37:41;;;;;;;1.45;1.35;;;;;;;15.15;68.04;100443.69;5016330;28;20051;-75
2021/10/26 00:40:11;;;;;;;1.25;1.20;;;;;;;15.16;67.90;100443.31;5015689;28;20523;-76
2021/10/26 00:42:45;;;;;;;1.70;1.48;;;;;;;15.20;68.24;100438.53;5015837;28;20021;-76
2021/10/26 00:45:13;;;;;;;1.67;1.58;;;;;;;15.18;68.10;100443.75;5016257;28;20033;-76
2021/10/26 00:47:39;;;;;;;2.47;1.83;;;;;;;15.31;67.35;100443.44;5015616;28;20033;-76
2021/10/26 00:50:08;;;;;;;1.92;1.60;;;;;;;15.31;67.04;100437.81;5015689;28;20038;-75
2021/10/26 00:52:37;;;;;;;2.97;1.55;;;;;;;15.25;67.40;100442.19;5015713;28;20041;-75
2021/10/26 00:55:05;;;;;;;3.38;1.98;;;;;;;15.28;67.81;100441.38;5016158;28;20029;-76
2021/10/26 00:57:33;;;;;;;2.97;1.80;;;;;;;15.31;67.20;100443.44;5033625;28;20072;-75
2021/10/26 01:00:04;;;;;;;2.90;2.00;;;;;;;15.39;67.03;100433.84;5016126;28;20052;-75
2021/10/26 01:02:32;;;;;;;3.13;2.22;;;;;;;15.29;67.61;100423.41;5015180;28;20034;-75
2021/10/26 01:05:01;;;;;;;2.95;2.08;;;;;;;15.34;67.89;100423.00;5015506;28;20034;-77
2021/10/26 01:07:32;;;;;;;1.80;1.70;;;;;;;15.26;67.45;100418.56;5015412;28;20061;-76
2021/10/26 01:10:01;;;;;;;6.68;2.10;;;;;;;15.30;67.87;100419.41;5019299;28;20489;-76
2021/10/26 01:12:29;;;;;;;2.97;2.20;;;;;;;15.20;67.87;100416.13;5019869;28;20065;-79
2021/10/26 01:14:56;;;;;;;2.13;1.63;;;;;;;15.15;68.82;100402.47;5020876;28;20056;-75
2021/10/26 01:17:22;;;;;;;2.50;2.30;;;;;;;15.20;68.46;100416.13;5039474;28;20502;-76
2021/10/26 01:19:53;;;;;;;4.50;2.15;;;;;;;15.25;68.83;100409.34;5039377;28;20090;-75
2021/10/26 01:22:21;;;;;;;4.90;2.25;;;;;;;15.21;68.37;100408.50;5039381;28;20029;-75
2021/10/26 01:24:47;;;;;;;2.20;2.00;;;;;;;15.12;68.45;100408.84;5038972;28;20040;-76
2021/10/26 01:27:14;;;;;;;2.53;2.03;;;;;;;15.12;69.22;100406.03;5039479;28;20041;-77
2021/10/26 01:29:39;;;;;;;2.53;2.33;;;;;;;15.13;68.87;100398.44;5039542;28;20155;-74
2021/10/26 01:32:09;;;;;;;1.98;1.77;;;;;;;15.14;68.71;100400.06;5038866;28;20025;-75
2021/10/26 01:34:38;;;;;;;2.47;1.90;;;;;;;15.15;68.63;100399.66;5039557;28;20091;-75
2021/10/26 01:37:06;;;;;;;1.92;1.80;;;;;;;15.15;68.57;100394.06;5038819;28;20029;-75
2021/10/26 01:39:35;;;;;;;3.85;1.73;;;;;;;15.08;69.18;100390.41;5038854;28;20029;-76
2021/10/26 01:42:02;;;;;;;1.85;1.70;;;;;;;15.07;69.02;100391.56;5038910;28;20056;-75
2021/10/26 01:44:31;;;;;;;2.10;1.60;;;;;;;14.98;69.06;100380.72;5039286;28;20028;-75
2021/10/26 01:46:56;;;;;;;2.00;1.80;;;;;;;15.07;68.78;100381.16;5038997;28;20376;-75
2021/10/26 01:49:23;;;;;;;1.88;1.65;;;;;;;15.09;68.80;100380.81;5038476;28;20025;-75
2021/10/26 01:51:49;;;;;;;3.00;1.88;;;;;;;15.16;68.47;100381.63;5038702;28;20029;-75
2021/10/26 01:54:18;;;;;;;1.70;1.60;;;;;;;15.16;68.56;100387.25;5056338;28;20033;-75
2021/10/26 01:56:47;;;;;;;2.17;1.80;;;;;;;15.12;68.32;100383.59;5038810;28;20022;-75
2021/10/26 01:59:13;;;;;;;1.95;1.67;;;;;;;15.13;68.59;100381.63;5022096;28;20041;-75
2021/10/26 02:01:41;;;;;;;3.78;1.95;;;;;;;15.13;68.85;100381.63;5038368;28;20171;-75
2021/10/26 02:04:07;;;;;;;4.18;1.70;;;;;;;15.16;68.99;100381.63;5038800;28;20037;-75
2021/10/26 02:06:33;;;;;;;1.63;1.52;;;;;;;15.20;68.22;100376.88;5038569;28;20481;-76
2021/10/26 02:09:00;;;;;;;2.83;2.00;;;;;;;15.28;68.43;100382.53;5038696;28;20375;-74
2021/10/26 02:11:31;;;;;;;2.47;1.67;;;;;;;15.19;68.24;100382.88;5038466;28;20383;-75
2021/10/26 02:13:59;;;;;;;4.05;2.00;;;;;;;15.13;68.64;100374.03;5038148;28;20029;-75
2021/10/26 02:16:28;;;;;;;1.63;1.48;;;;;;;15.22;68.43;100378.47;5047996;28;20053;-75
2021/10/26 02:18:53;;;;;;;2.42;2.22;;;;;;;15.15;68.64;100374.44;5054354;28;20025;-75
2021/10/26 02:21:20;;;;;;;1.70;1.60;;;;;;;15.11;68.81;100379.19;5054670;28;20037;-75
2021/10/26 02:23:46;;;;;;;2.78;1.52;;;;;;;15.25;68.61;100380.50;5054633;28;20036;-75
2021/10/26 02:26:12;;;;;;;2.25;2.00;;;;;;;15.24;68.55;100381.72;5054846;28;20041;-75
2021/10/26 02:28:38;;;;;;;2.63;2.42;;;;;;;15.26;68.27;100391.31;5054712;28;20029;-75
2021/10/26 02:31:03;;;;;;;3.70;3.38;;;;;;;15.23;68.70;100382.88;5054403;28;20500;-76
2021/10/26 02:33:32;;;;;;;4.80;4.30;;;;;;;15.22;68.95;100378.47;5054549;28;20040;-76
2021/10/26 02:35:58;;;;;;;9.82;7.55;;;;;;;15.25;69.02;100394.53;5054594;28;20536;-75
2021/10/26 02:38:23;;;;;;;6.18;5.57;;;;;;;15.17;68.77;100388.84;5054320;28;20025;-75
2021/10/26 02:40:49;;;;;;;7.40;6.65;;;;;;;15.23;69.09;100391.28;5054493;28;20060;-75
2021/10/26 02:43:15;;;;;;;7.93;7.13;;;;;;;15.25;69.07;100389.72;5054774;28;20459;-76
2021/10/26 02:45:43;;;;;;;7.45;6.32;;;;;;;15.23;69.30;100391.28;5054206;28;20048;-75
2021/10/26 02:48:09;;;;;;;5.22;4.72;;;;;;;15.24;68.87;100392.94;5054088;28;20060;-75
2021/10/26 02:50:38;;;;;;;3.83;3.10;;;;;;;15.30;68.29;100391.38;5037715;28;20118;-76
2021/10/26 02:53:06;;;;;;;2.97;2.17;;;;;;;15.28;68.24;100394.53;5054335;28;20079;-75
2021/10/26 02:55:35;;;;;;;2.53;1.77;;;;;;;15.36;67.95;100392.59;5050173;28;20048;-75
2021/10/26 02:58:01;;;;;;;2.95;2.10;;;;;;;15.50;67.38;100394.69;5054353;28;20509;-75
2021/10/26 03:00:27;;;;;;;2.10;1.80;;;;;;;15.52;67.47;100404.31;5054064;28;20036;-75
2021/10/26 03:02:55;;;;;;;2.13;1.92;;;;;;;15.42;67.52;100397.44;5054051;28;20386;-75
2021/10/26 03:05:21;;;;;;;1.80;1.70;;;;;;;15.47;67.44;100387.88;5054014;28;20159;-75
2021/10/26 03:07:49;;;;;;;3.28;2.85;;;;;;;15.42;67.64;100393.84;5054175;28;20020;-76
2021/10/26 03:10:15;;;;;;;2.50;2.30;;;;;;;15.40;68.41;100396.25;5054129;28;20529;-74
2021/10/26 03:12:41;;;;;;;5.32;3.10;;;;;;;15.38;67.72;100384.59;5053831;28;20036;-76
2021/10/26 03:15:10;;;;;;;2.80;2.60;;;;;;;15.36;68.31;100393.41;5053762;28;20040;-76
2021/10/26 03:17:36;;;;;;;4.38;2.50;;;;;;;15.36;68.28;100390.59;5037074;28;20479;-75
2021/10/26 03:20:03;;;;;;;5.20;2.90;;;;;;;15.50;67.70;100383.47;5036881;28;20044;-76
2021/10/26 03:22:31;;;;;;;4.13;1.92;;;;;;;15.53;67.65;100380.69;5036874;28;20017;-76
2021/10/26 03:25:00;;;;;;;4.20;1.67;;;;;;;15.51;67.81;100385.91;5036864;28;20044;-77
2021/10/26 03:27:26;;;;;;;2.22;2.00;;;;;;;15.57;67.45;100387.13;5036872;28;20509;-76
2021/10/26 03:29:52;;;;;;;2.42;1.92;;;;;;;15.54;67.78;100387.91;5036730;28;20033;-77
2021/10/26 03:32:21;;;;;;;3.58;1.95;;;;;;;15.52;67.64;100386.69;5035898;28;20017;-75
2021/10/26 03:34:47;;;;;;;2.25;2.05;;;;;;;15.47;67.82;100373.84;5037427;28;20028;-79
2021/10/26 03:37:13;;;;;;;3.80;2.53;;;;;;;15.42;68.39;100374.22;5054552;28;20060;-76
2021/10/26 03:39:39;;;;;;;3.88;3.58;;;;;;;15.43;68.62;100375.81;5036866;28;20123;-76
2021/10/26 03:42:05;;;;;;;5.05;3.60;;;;;;;15.46;68.17;100378.66;5036397;28;20391;-80
2021/10/26 03:44:30;;;;;;;3.92;3.08;;;;;;;15.48;68.11;100381.06;5035975;28;20048;-76
2021/10/26 03:46:56;;;;;;;5.07;2.60;;;;;;;15.41;68.44;100381.03;5036415;28;20070;-77
2021/10/26 03:49:22;;;;;;;3.55;2.47;;;;;;;15.43;68.00;100379.41;5036177;28;20036;-77
2021/10/26 03:51:50;;;;;;;2.53;2.30;;;;;;;15.52;67.84;100381.88;5036234;28;20078;-76
2021/10/26 03:54:19;;;;;;;5.53;2.40;;;;;;;15.53;67.85;100385.50;5036319;28;20032;-76
2021/10/26 03:56:44;;;;;;;2.40;2.20;;;;;;;15.52;67.94;100381.88;5036827;28;20116;-76
2021/10/26 03:59:13;;;;;;;2.53;2.33;;;;;;;15.51;67.77;100380.28;5036188;28;20494;-76
2021/10/26 04:01:38;;;;;;;6.53;2.63;;;;;;;15.51;68.53;100380.28;5036445;28;20171;-76
2021/10/26 04:04:04;;;;;;;6.50;2.97;;;;;;;15.55;68.14;100385.91;5035995;28;20502;-75
2021/10/26 04:06:34;;;;;;;3.42;2.00;;;;;;;15.60;68.00;100383.53;5036163;28;20074;-76
2021/10/26 04:09:06;;;;;;;2.30;1.65;;;;;;;15.55;67.51;100381.09;5036227;28;20037;-76
2021/10/26 04:14:38;;;;;;;2.20;2.00;;;;;;;15.46;68.60;100380.66;4954283;29;20043;-76
2021/10/26 04:17:06;;;;;;;2.10;2.00;;;;;;;15.49;68.42;100382.66;5016577;28;20069;-75
2021/10/26 04:19:32;;;;;;;2.83;2.28;;;;;;;15.55;67.98;100381.09;5036477;28;20024;-76
2021/10/26 04:21:58;;;;;;;4.95;2.15;;;;;;;15.52;68.07;100384.69;5036250;28;20029;-75
2021/10/26 04:24:23;;;;;;;2.45;2.25;;;;;;;15.52;68.06;100381.88;5036280;28;20522;-76
2021/10/26 04:26:49;;;;;;;2.55;1.88;;;;;;;15.43;68.13;100382.22;5035887;28;20479;-78
2021/10/26 04:29:15;;;;;;;2.15;1.95;;;;;;;15.42;68.19;100383.44;5035697;28;20387;-77
2021/10/26 04:31:41;;;;;;;2.45;2.25;;;;;;;15.43;68.25;100384.22;5035751;28;20044;-76
2021/10/26 04:34:09;;;;;;;2.50;2.30;;;;;;;15.44;68.10;100385.84;5035964;28;20033;-76
2021/10/26 04:36:37;;;;;;;2.33;2.10;;;;;;;15.37;68.33;100381.00;5036163;28;20037;-81
2021/10/26 04:39:04;;;;;;;2.47;2.25;;;;;;;15.38;68.52;100376.19;5035649;28;20379;-76
2021/10/26 04:41:32;;;;;;;3.35;2.13;;;;;;;15.40;68.26;100379.41;5035796;28;20039;-76
2021/10/26 04:43:59;;;;;;;2.05;1.85;;;;;;;15.38;68.57;100378.97;5035182;28;20067;-76
2021/10/26 04:46:25;;;;;;;2.15;2.05;;;;;;;15.42;68.36;100388.22;5035396;28;20029;-76
2021/10/26 04:48:51;;;;;;;2.50;2.15;;;;;;;15.38;68.53;100384.59;5035641;28;20036;-76
2021/10/26 04:51:19;;;;;;;2.38;2.22;;;;;;;15.32;68.72;100380.56;5035353;28;20536;-76
2021/10/26 04:53:45;;;;;;;3.95;2.00;;;;;;;15.31;69.12;100376.16;5035759;28;20029;-76
2021/10/26 04:56:10;;;;;;;3.05;1.77;;;;;;;15.31;69.56;100371.34;5035471;28;20532;-76
2021/10/26 04:58:36;;;;;;;3.33;2.28;;;;;;;15.45;68.81;100377.06;5035438;28;20028;-77
2021/10/26 05:01:02;;;;;;;4.63;2.40;;;;;;;15.49;67.88;100379.84;5035736;28;20375;-76
2021/10/26 05:03:28;;;;;;;2.30;2.05;;;;;;;15.56;67.77;100377.09;5035362;28;20546;-77
2021/10/26 05:05:57;;;;;;;2.25;2.15;;;;;;;15.47;68.05;100376.66;5035734;28;20049;-76
2021/10/26 05:08:26;;;;;;;2.42;2.22;;;;;;;15.40;68.35;100382.22;5035422;28;20032;-76
2021/10/26 05:10:54;;;;;;;2.95;2.75;;;;;;;15.33;69.00;100382.16;5035688;28;20440;-75
2021/10/26 05:13:20;;;;;;;2.75;2.55;;;;;;;15.31;68.67;100387.34;5035163;28;20068;-76
2021/10/26 05:15:48;;;;;;;2.42;2.17;;;;;;;15.33;68.74;100382.16;5039693;28;20064;-76
2021/10/26 05:18:15;;;;;;;6.28;2.40;;;;;;;15.34;68.93;100380.97;5052032;28;20032;-76
2021/10/26 05:20:45;;;;;;;2.95;2.65;;;;;;;15.33;68.74;100380.16;5052363;28;20116;-80
2021/10/26 05:23:11;;;;;;;2.50;2.33;;;;;;;15.31;68.92;100376.94;5051933;28;20033;-76
2021/10/26 05:25:38;;;;;;;4.75;2.55;;;;;;;15.28;69.66;100377.72;5052286;28;20123;-81
2021/10/26 05:28:04;;;;;;;2.92;2.63;;;;;;;15.26;69.49;100384.91;5051969;28;20021;-77
2021/10/26 05:30:30;;;;;;;3.40;2.58;;;;;;;15.34;68.78;100386.56;5051759;28;20467;-76
2021/10/26 05:32:58;;;;;;;3.90;3.35;;;;;;;15.40;69.05;100385.81;5051809;28;20158;-76
2021/10/26 05:35:24;;;;;;;7.25;2.80;;;;;;;15.44;68.59;100385.84;5051476;28;20033;-76
2021/10/26 05:37:52;;;;;;;3.72;2.80;;;;;;;15.44;68.69;100385.84;5051845;28;20037;-76
2021/10/26 05:40:20;;;;;;;2.97;2.70;;;;;;;15.41;68.76;100395.03;5052056;28;20028;-78
2021/10/26 05:42:45;;;;;;;3.85;2.88;;;;;;;15.38;69.31;100387.41;5052096;28;20529;-76
2021/10/26 05:45:14;;;;;;;4.93;3.00;;;;;;;15.47;68.90;100393.47;5051283;28;20120;-76
2021/10/26 05:47:44;;;;;;;3.10;2.72;;;;;;;15.55;68.36;100391.50;5046787;28;20033;-76
2021/10/26 05:50:10;;;;;;;4.05;2.97;;;;;;;15.53;68.64;100394.72;5051392;28;20116;-76
2021/10/26 05:52:38;;;;;;;4.45;3.97;;;;;;;15.54;68.35;100401.13;5051456;28;20112;-76
2021/10/26 05:55:05;;;;;;;3.92;3.58;;;;;;;15.53;68.29;100394.72;5053385;28;20025;-76
2021/10/26 05:57:34;;;;;;;3.70;3.15;;;;;;;15.68;67.91;100402.03;5055185;28;20082;-76
2021/10/26 06:00:03;;;;;;;4.53;3.20;;;;;;;15.69;67.63;100409.25;5055005;28;20091;-77
2021/10/26 06:02:32;;;;;;;3.80;2.90;;;;;;;15.86;67.47;100412.53;5055297;28;20111;-77
2021/10/26 06:04:58;;;;;;;2.83;2.63;;;;;;;16.03;66.87;100416.63;5055614;28;20033;-76
2021/10/26 06:07:23;;;;;;;2.80;2.55;;;;;;;16.03;66.51;100417.44;5055062;28;20038;-75
2021/10/26 06:09:52;;;;;;;6.30;3.33;;;;;;;16.16;66.38;100421.50;5055099;28;20447;-76
2021/10/26 06:12:23;;;;;;;12.88;4.13;;;;;;;16.22;66.05;100425.53;5054820;28;20036;-76
2021/10/26 06:14:52;;;;;;;3.85;3.50;;;;;;;16.21;66.20;100429.56;5054404;28;20032;-79
2021/10/26 06:17:17;;;;;;;3.97;2.95;;;;;;;16.24;66.14;100434.38;5038404;28;20102;-76
2021/10/26 06:19:43;;;;;;;11.27;2.92;;;;;;;16.29;65.78;100432.38;5037871;28;20471;-76
2021/10/26 06:22:12;;;;;;;6.45;2.92;;;;;;;16.43;65.82;100440.84;5037860;28;20032;-76
2021/10/26 06:24:37;;;;;;;5.60;2.78;;;;;;;16.59;65.03;100435.69;5037693;28;20086;-77
2021/10/26 06:27:03;;;;;;;3.00;2.63;;;;;;;16.68;64.64;100440.94;5037794;28;20448;-77
2021/10/26 06:29:34;;;;;;;6.35;2.83;;;;;;;16.81;64.44;100458.22;5037540;28;20036;-76
2021/10/26 06:32:01;;;;;;;3.45;3.15;;;;;;;16.93;63.85;100453.03;5037965;28;20032;-76
2021/10/26 06:34:29;;;;;;;3.05;2.85;;;;;;;17.09;63.47;100444.19;5036340;28;20044;-76
2021/10/26 06:37:01;;;;;;;4.40;3.05;;;;;;;17.21;63.16;100454.28;5037942;28;20086;-76
2021/10/26 06:39:26;;;;;;;3.38;2.83;;;;;;;17.29;62.94;100458.66;5055997;28;20032;-75
2021/10/26 06:42:00;;;;;;;6.10;3.60;;;;;;;17.34;62.56;100468.72;5037694;28;20021;-74
2021/10/26 06:44:29;;;;;;;3.38;2.97;;;;;;;17.26;62.67;100459.50;5055190;28;20104;-74
2021/10/26 06:46:57;;;;;;;7.60;2.72;;;;;;;17.39;62.09;100462.69;5037395;28;20039;-74
2021/10/26 06:49:27;;;;;;;2.50;2.28;;;;;;;17.39;62.15;100463.50;5037476;28;20037;-75
2021/10/26 06:51:52;;;;;;;3.35;2.50;;;;;;;17.41;62.07;100469.50;5037203;28;20143;-74
2021/10/26 06:54:24;;;;;;;3.33;3.00;;;;;;;17.44;61.61;100467.91;5037519;28;20116;-74
2021/10/26 06:56:50;;;;;;;2.80;2.53;;;;;;;17.58;61.00;100473.53;5037227;28;20025;-74
2021/10/26 06:59:15;;;;;;;4.43;2.85;;;;;;;17.65;61.39;100475.53;5037523;28;20121;-75
2021/10/26 07:01:41;;;;;;;6.70;3.47;;;;;;;17.76;60.86;100477.16;5037512;28;20055;-75
2021/10/26 07:04:07;;;;;;;3.13;2.70;;;;;;;17.86;60.81;100477.53;5036667;28;20068;-74
2021/10/26 07:06:35;;;;;;;4.75;3.00;;;;;;;17.92;60.68;100473.91;5035822;28;20151;-74
2021/10/26 07:09:02;;;;;;;5.57;3.00;;;;;;;18.12;59.83;100477.06;5036658;28;20098;-75
2021/10/26 07:11:27;;;;;;;3.45;2.90;;;;;;;18.09;59.56;100483.50;5036828;28;20033;-74
2021/10/26 07:13:53;;;;;;;4.22;2.67;;;;;;;18.16;59.51;100483.47;5037088;28;20086;-75
2021/10/26 07:16:19;;;;;;;3.25;2.95;;;;;;;18.37;58.93;100487.41;5024203;28;20060;-75
2021/10/26 07:18:44;;;;;;;5.28;2.97;;;;;;;18.15;58.78;100489.50;5017312;28;20033;-75
2021/10/26 07:21:12;;;;;;;5.55;3.60;;;;;;;18.05;59.80;100488.34;5016967;28;20372;-74
2021/10/26 07:23:42;;;;;;;4.88;4.18;;;;;;;18.22;59.15;100486.69;5035114;28;20364;-74
2021/10/26 07:26:08;;;;;;;4.68;4.03;;;;;;;18.44;58.48;100485.41;5012652;28;20056;-74
2021/10/26 07:28:37;;;;;;;5.35;3.60;;;;;;;18.50;58.20;100482.94;5017270;28;20477;-74
2021/10/26 07:31:05;;;;;;;7.43;4.35;;;;;;;18.67;58.15;100490.50;5016865;28;20387;-75
2021/10/26 07:33:35;;;;;;;5.53;3.38;;;;;;;18.47;57.81;100497.84;5034779;28;20367;-75
2021/10/26 07:36:04;;;;;;;5.05;2.63;;;;;;;18.63;57.67;100488.91;5016953;28;20467;-74
2021/10/26 07:38:48;;;;;;;4.07;2.97;;;;;;;18.89;57.13;100487.59;5016582;28;20036;-76
2021/10/26 07:41:16;;;;;;;4.13;2.67;;;;;;;18.96;56.85;100484.72;5016648;28;20029;-74
2021/10/26 07:43:42;;;;;;;4.40;2.90;;;;;;;18.99;56.29;100486.72;5016497;28;20029;-74
2021/10/26 07:46:08;;;;;;;2.75;2.20;;;;;;;19.21;56.10;100482.53;5016383;28;20025;-74
2021/10/26 07:48:36;;;;;;;3.22;2.35;;;;;;;19.43;55.35;100480.34;5016463;28;20116;-74
2021/10/26 07:51:02;;;;;;;3.38;2.67;;;;;;;19.64;54.46;100487.84;5016738;28;20034;-75
2021/10/26 07:53:29;;;;;;;4.93;2.75;;;;;;;19.89;54.23;100484.78;5016340;28;20365;-75
2021/10/26 07:55:58;;;;;;;4.68;2.88;;;;;;;19.99;53.26;100491.53;5016402;28;20034;-75
2021/10/26 07:58:26;;;;;;;3.83;3.17;;;;;;;20.08;52.49;100494.66;5034057;28;20108;-76
2021/10/26 08:00:52;;;;;;;3.33;2.70;;;;;;;20.22;53.24;100499.34;5000170;28;20422;-75
2021/10/26 08:03:19;;;;;;;5.65;3.03;;;;;;;20.49;52.28;100499.44;5016192;28;20475;-75
2021/10/26 08:05:47;;;;;;;3.58;2.72;;;;;;;20.65;51.68;100491.97;5016032;28;20025;-75
2021/10/26 08:08:17;;;;;;;3.30;2.70;;;;;;;20.80;50.39;100497.44;5015982;28;20112;-75
2021/10/26 08:10:45;;;;;;;2.80;2.60;;;;;;;21.04;50.75;100496.28;5016051;28;20030;-75
2021/10/26 08:13:11;;;;;;;3.85;2.33;;;;;;;21.59;49.60;100497.03;5015813;28;20026;-76
2021/10/26 08:15:40;;;;;;;3.30;3.00;;;;;;;21.50;49.46;100499.63;5015673;28;20123;-74
2021/10/26 08:18:08;;;;;;;2.90;2.53;;;;;;;21.49;48.42;100503.69;5016367;28;20538;-76
2021/10/26 08:20:33;;;;;;;3.67;3.03;;;;;;;21.03;50.28;100493.84;5015986;28;20087;-76
2021/10/26 08:23:02;;;;;;;2.78;2.47;;;;;;;21.11;49.90;100492.53;5016228;28;20025;-76
2021/10/26 08:25:30;;;;;;;3.22;2.88;;;;;;;21.50;48.45;100499.63;5015878;28;20061;-76
2021/10/26 08:28:01;;;;;;;2.60;2.40;;;;;;;21.59;48.79;100500.66;5016463;28;20031;-76
2021/10/26 08:30:43;;;;;;;5.22;2.88;;;;;;;21.74;47.96;100495.56;5016291;28;20056;-74
2021/10/26 08:35:59;;;;;;;3.88;3.25;;;;;;;21.85;47.10;100486.88;5033534;28;20030;-75
2021/10/26 08:38:31;;;;;;;3.42;2.72;;;;;;;22.12;46.44;100492.44;5031682;28;20520;-76
2021/10/26 08:40:59;;;;;;;9.55;3.92;;;;;;;22.08;46.76;100503.03;5015869;28;20029;-75
2021/10/26 08:43:27;;;;;;;4.95;3.20;;;;;;;22.23;46.03;100493.03;5015521;28;20025;-76
2021/10/26 08:45:59;;;;;;;3.55;3.22;;;;;;;22.12;45.93;100479.09;5016090;28;20367;-75
2021/10/26 08:48:26;;;;;;;6.78;3.95;;;;;;;21.86;47.10;100496.97;5033177;28;20501;-75
2021/10/26 08:50:56;;;;;;;4.20;3.67;;;;;;;22.26;45.97;100500.66;5016033;28;20124;-76
2021/10/26 08:53:22;;;;;;;6.57;4.15;;;;;;;22.53;45.67;100505.38;5015891;28;20033;-75
2021/10/26 08:55:59;;;;;;;5.22;3.95;;;;;;;22.44;45.84;100500.31;5015664;28;20361;-75
2021/10/26 08:58:28;;;;;;;5.22;3.78;;;;;;;22.90;44.82;100492.84;5015488;28;20032;-74
2021/10/26 09:01:02;;;;;;;4.25;3.85;;;;;;;23.03;44.89;100495.81;5015581;28;20034;-75
2021/10/26 09:03:35;;;;;;;4.65;3.97;;;;;;;23.62;43.53;100497.59;5015392;28;20148;-79
2021/10/26 09:06:05;;;;;;;4.82;3.88;;;;;;;23.20;44.30;100491.75;5015958;28;20033;-75
2021/10/26 09:08:31;;;;;;;4.70;3.38;;;;;;;23.44;43.05;100498.84;5011028;28;20025;-75
2021/10/26 09:11:23;;;;;;;6.70;4.18;;;;;;;23.08;44.12;100490.41;5032639;28;20440;-75
2021/10/26 09:16:48;;;;;;;8.07;3.92;;;;;;;22.86;44.50;100497.78;5047225;28;20497;-75
2021/10/26 09:19:25;;;;;;;4.53;3.70;;;;;;;22.41;45.40;100490.63;5052620;28;20121;-80
2021/10/26 09:22:02;;;;;;;5.03;3.42;;;;;;;22.53;44.96;100502.53;5034870;28;20044;-75
2021/10/26 09:24:32;;;;;;;5.68;2.80;;;;;;;22.39;44.53;100498.78;5035000;28;20087;-77
2021/10/26 09:27:06;;;;;;;3.13;2.75;;;;;;;22.75;44.18;100493.16;5034949;28;20127;-75
2021/10/26 09:29:49;;;;;;;4.07;3.17;;;;;;;22.79;44.12;100493.06;5035958;28;20021;-75
2021/10/26 09:32:19;;;;;;;4.35;3.33;;;;;;;22.72;44.53;100488.34;5056994;28;20056;-75
2021/10/26 09:34:57;;;;;;;6.10;3.85;;;;;;;21.98;46.17;100496.31;5038826;28;20036;-75
2021/10/26 09:37:31;;;;;;;5.18;3.17;;;;;;;22.13;46.08;100491.22;5038865;28;20029;-75
2021/10/26 09:40:00;;;;;;;4.38;2.95;;;;;;;22.40;45.44;100489.03;5039171;28;20083;-75
2021/10/26 09:42:53;;;;;;;9.13;3.70;;;;;;;22.66;44.89;100494.97;5038902;28;20065;-75
2021/10/26 09:45:27;;;;;;;3.63;3.07;;;;;;;22.66;45.03;100483.63;5030101;28;20490;-75
2021/10/26 09:48:17;;;;;;;3.50;3.20;;;;;;;23.33;43.24;100492.66;5038496;28;20025;-75
2021/10/26 09:50:46;;;;;;;4.72;3.42;;;;;;;23.50;43.05;100482.09;5056283;28;20101;-75
2021/10/26 09:53:14;;;;;;;4.50;3.30;;;;;;;23.32;43.26;100493.88;5038327;28;20025;-75
2021/10/26 09:55:46;;;;;;;4.75;3.88;;;;;;;22.82;43.98;100497.84;5038278;28;20025;-75
2021/10/26 09:58:24;;;;;;;6.25;4.43;;;;;;;22.19;45.66;100489.47;5056255;28;20032;-75
2021/10/26 10:01:03;;;;;;;4.35;3.58;;;;;;;22.19;45.76;100492.31;5056738;28;20032;-75
2021/10/26 10:03:29;;;;;;;9.30;4.55;;;;;;;22.22;45.90;100488.59;5038759;28;20423;-75
2021/10/26 10:06:01;;;;;;;4.97;3.78;;;;;;;22.16;46.25;100490.34;5037935;28;20167;-74
2021/10/26 10:08:38;;;;;;;5.63;3.45;;;;;;;21.93;46.73;100489.13;5037975;28;20078;-75
2021/10/26 10:11:20;;;;;;;4.18;3.55;;;;;;;21.87;46.93;100482.34;5038057;28;20071;-75
2021/10/26 10:13:56;;;;;;;6.25;3.35;;;;;;;21.90;47.17;100484.34;5055954;28;20017;-75
2021/10/26 10:16:25;;;;;;;4.90;3.72;;;;;;;22.22;45.92;100483.75;5025236;28;20053;-75
2021/10/26 10:18:56;;;;;;;7.30;3.70;;;;;;;22.57;44.87;100458.69;5018105;28;20026;-74
2021/10/26 10:21:28;;;;;;;4.45;3.53;;;;;;;22.21;45.75;100479.31;5018709;28;20407;-75
2021/10/26 10:23:58;;;;;;;4.43;3.45;;;;;;;22.22;46.07;100471.59;5018024;28;20017;-75
2021/10/26 10:26:30;;;;;;;4.00;3.40;;;;;;;21.91;46.98;100462.47;5018038;28;20468;-75
2021/10/26 10:29:12;;;;;;;6.82;4.13;;;;;;;21.90;46.65;100466.53;5036178;28;20075;-75
2021/10/26 10:31:38;;;;;;;5.13;3.58;;;;;;;22.02;46.53;100467.94;5017634;28;20037;-75
2021/10/26 10:34:07;;;;;;;3.65;3.33;;;;;;;21.55;47.18;100463.13;5017732;28;20052;-75
2021/10/26 10:36:34;;;;;;;4.53;3.55;;;;;;;21.35;48.21;100460.22;5017036;28;20190;-74
2021/10/26 10:39:06;;;;;;;5.72;3.78;;;;;;;21.80;47.20;100457.00;5036043;28;20029;-75
2021/10/26 10:41:37;;;;;;;5.10;3.33;;;;;;;21.75;47.17;100459.53;5017807;28;20033;-75
2021/10/26 10:44:28;;;;;;;6.13;4.45;;;;;;;21.77;47.41;100452.19;5017694;28;20030;-74
2021/10/26 10:47:00;;;;;;;4.55;4.13;;;;;;;21.75;47.89;100453.88;5017380;28;20029;-75
2021/10/26 10:49:34;;;;;;;5.88;3.67;;;;;;;21.55;47.97;100454.63;5018361;28;20099;-75
2021/10/26 10:52:13;;;;;;;4.30;3.90;;;;;;;21.31;48.07;100434.03;5018100;28;20456;-75
2021/10/26 10:54:58;;;;;;;5.40;3.65;;;;;;;21.66;47.43;100451.59;5035418;28;20029;-74
2021/10/26 10:57:37;;;;;;;6.28;3.40;;;;;;;21.24;48.24;100448.25;5017986;28;20468;-75
2021/10/26 11:00:18;;;;;;;6.28;3.97;;;;;;;21.41;47.74;100441.53;5001291;28;20029;-75
2021/10/26 11:02:46;;;;;;;5.53;3.10;;;;;;;21.60;47.67;100442.81;5017401;28;20029;-75
2021/10/26 11:05:31;;;;;;;4.28;3.83;;;;;;;21.61;47.91;100444.41;5017173;28;20045;-75
2021/10/26 11:08:02;;;;;;;5.57;3.70;;;;;;;21.82;47.36;100437.53;5017307;28;20030;-75
2021/10/26 11:10:54;;;;;;;4.68;3.97;;;;;;;21.82;47.61;100436.75;5017806;28;20351;-74
2021/10/26 11:13:26;;;;;;;5.90;2.90;;;;;;;21.75;46.86;100431.22;5018063;28;20033;-75
2021/10/26 11:15:54;;;;;;;3.22;2.90;;;;;;;21.66;47.28;100426.13;5030728;28;20061;-75
2021/10/26 11:18:45;;;;;;;3.95;3.17;;;;;;;21.55;47.08;100437.63;5053407;28;20025;-75
2021/10/26 11:21:19;;;;;;;4.43;3.10;;;;;;;21.61;46.82;100430.25;5055427;28;20087;-75
2021/10/26 11:23:49;;;;;;;5.43;3.72;;;;;;;21.70;46.54;100419.16;5053931;28;20390;-75
2021/10/26 11:26:31;;;;;;;4.78;2.97;;;;;;;21.73;46.17;100425.97;5054963;28;20028;-78
2021/10/26 11:28:59;;;;;;;6.23;3.33;;;;;;;21.65;46.74;100418.84;5054869;28;20057;-78
2021/10/26 11:31:40;;;;;;;4.72;3.05;;;;;;;21.85;46.05;100416.84;5053645;28;20300;-77
2021/10/26 11:34:15;;;;;;;3.53;2.50;;;;;;;22.03;45.87;100413.66;5053400;28;20033;-77
2021/10/26 11:36:41;;;;;;;5.72;2.58;;;;;;;22.08;45.34;100418.81;5046065;28;20052;-75
2021/10/26 11:39:14;;;;;;;3.85;2.78;;;;;;;22.15;44.86;100415.84;5053180;28;20079;-74
2021/10/26 11:41:42;;;;;;;2.97;2.67;;;;;;;22.00;45.22;100425.88;5053326;28;20378;-74